Surface/Precipitation History
05/27/2016 23:46  to  5/28/2016 23:46
Change End Date:
Date/Time
(MDT)
Sf
Temp Chem Water Layer Surface Precipitation
Sfc Pvt Sub Frz Factor Pct Dpth DpthThk IcePct Cond Salin FI Type Intens Accum Rate
05/28/2016 23:40 Dry 45.0F - 56F - - - - - - 37 mhos 3566 - None None - -
05/28/2016 23:32 Dry 45.0F - 56F - - - - - - 37 mhos 3566 - None None - -
05/28/2016 23:25 Dry 45.3F - 56F - - - - - - 37 mhos 3524 - None None - -
05/28/2016 23:22 Dry 45.3F - 56F - - - - - - 37 mhos 3524 - None None - -
05/28/2016 23:12 Dry 46.0F - 56F - - - - - - 37 mhos 3494 - None None - -
05/28/2016 23:10 Dry 46.0F - 56F - - - - - - 37 mhos 3494 - None None - -
05/28/2016 23:02 Dry 46.2F - 56F - - - - - - 37 mhos 3480 - None None - -
05/28/2016 22:55 Dry 46.6F - 56F - - - - - - 37 mhos 3465 - None None - -
05/28/2016 22:52 Dry 46.8F - 55F - - - - - - 37 mhos 3458 - None None - -
05/28/2016 22:42 Dry 47.3F - 55F - - - - - - 37 mhos 3436 - None None - -
05/28/2016 22:40 Dry 47.3F - 55F - - - - - - 37 mhos 3436 - None None - -
05/28/2016 22:32 Dry 47.8F - 55F - - - - - - 37 mhos 3408 - None None - -
05/28/2016 22:25 Dry 48.2F - 55F - - - - - - 37 mhos 3394 - None None - -
05/28/2016 22:22 Dry 48.4F - 55F - - - - - - 37 mhos 3387 - None None - -
05/28/2016 22:11 Dry 48.9F - 55F - - - - - - 37 mhos 3335 - None None - -
Date/Time
(MDT)
Sf
Temp Chem Water Layer Surface Precipitation
Sfc Pvt Sub Frz Factor Pct Dpth DpthThk IcePct Cond Salin FI Type Intens Accum Rate
05/28/2016 22:10 Dry 49.1F - 55F - - - - - - 37 mhos 3328 - None None - -
05/28/2016 22:01 Dry 49.6F - 55F - - - - - - 36 mhos 3283 - None None - -
05/28/2016 21:55 Dry 50.0F - 55F - - - - - - 36 mhos 3264 - None None - -
05/28/2016 21:51 Dry 50.2F - 55F - - - - - - 36 mhos 3257 - None None - -
05/28/2016 21:41 Dry 51.1F - 55F - - - - - - 36 mhos 3225 - None None - -
05/28/2016 21:40 Dry 51.1F - 55F - - - - - - 36 mhos 3225 - None None - -
05/28/2016 21:31 Dry 51.6F - 55F - - - - - - 36 mhos 3200 - None None - -
05/28/2016 21:25 Dry 52.3F - 55F - - - - - - 36 mhos 3175 - None None - -
05/28/2016 21:21 Dry 52.5F - 55F - - - - - - 36 mhos 3169 - None None - -
05/28/2016 21:11 Dry 53.4F - 55F - - - - - - 37 mhos 3179 - None None - -
05/28/2016 21:10 Dry 53.6F - 55F - - - - - - 37 mhos 3173 - None None - -
05/28/2016 21:01 Dry 54.7F - 55F - - - - - - 37 mhos 3109 - None None - -
05/28/2016 20:55 Dry 55.2F - 55F - - - - - - 37 mhos 3108 - None None - -
05/28/2016 20:51 Dry 55.8F - 55F - - - - - - 37 mhos 3114 - None None - -
05/28/2016 20:41 Dry 56.8F - 55F - - - - - - 37 mhos 3052 - None None - -
Date/Time
(MDT)
Sf
Temp Chem Water Layer Surface Precipitation
Sfc Pvt Sub Frz Factor Pct Dpth DpthThk IcePct Cond Salin FI Type Intens Accum Rate
05/28/2016 20:40 Dry 57.0F - 55F - - - - - - 37 mhos 3046 - None None - -
05/28/2016 20:31 Dry 58.5F - 55F - - - - - - 37 mhos 3019 - None None - -
05/28/2016 20:25 Dry 59.7F - 55F - - - - - - 37 mhos 2977 - None None - -
05/28/2016 20:21 Dry 60.3F - 54F - - - - - - 37 mhos 2978 - None None - -
05/28/2016 20:11 Dry 61.5F - 54F - - - - - - 37 mhos 2915 - None None - -
05/28/2016 20:10 Dry 61.7F - 54F - - - - - - 37 mhos 2910 - None None - -
05/28/2016 20:01 Dry 63.1F - 54F - - - - - - 37 mhos 2887 - None None - -
05/28/2016 19:55 Dry 63.9F - 54F - - - - - - 37 mhos 2842 - None None - -
05/28/2016 19:51 Dry 64.2F - 54F - - - - - - 37 mhos 2853 - None None - -
05/28/2016 19:41 Dry 64.4F - 54F - - - - - - 37 mhos 2844 - None None - -
05/28/2016 19:40 Dry 64.4F - 54F - - - - - - 37 mhos 2823 - None None - -
05/28/2016 19:31 Dry 66.2F - 54F - - - - - - 37 mhos 2772 - None None - -
05/28/2016 19:25 Dry 67.3F - 54F - - - - - - 37 mhos 2721 - None None - -
05/28/2016 19:21 Dry 69.4F - 54F - - - - - - 37 mhos 2662 - None None - -
05/28/2016 19:11 Dry 71.2F - 54F - - - - - - 37 mhos 2598 - None None - -
Date/Time
(MDT)
Sf
Temp Chem Water Layer Surface Precipitation
Sfc Pvt Sub Frz Factor Pct Dpth DpthThk IcePct Cond Salin FI Type Intens Accum Rate
05/28/2016 19:10 Dry 72.3F - 54F - - - - - - 37 mhos 2570 - None None - -
05/28/2016 19:01 Dry 73.2F - 53F - - - - - - 37 mhos 2547 - None None - -
05/28/2016 18:55 Dry 72.7F - 53F - - - - - - 36 mhos 2540 - None None - -
05/28/2016 18:50 Dry 74.5F - 53F - - - - - - 36 mhos 2499 - None None - -
05/28/2016 18:40 Dry 75.4F - 53F - - - - - - 36 mhos 2477 - None None - -
05/28/2016 18:40 Dry 75.2F - 53F - - - - - - 36 mhos 2480 - None None - -
05/28/2016 18:30 Dry 74.5F - 53F - - - - - - 37 mhos 2517 - None None - -
05/28/2016 18:25 Dry 71.2F - 53F - - - - - - 37 mhos 2598 - None None - -
05/28/2016 18:20 Dry 71.2F - 53F - - - - - - 37 mhos 2598 - None None - -
05/28/2016 18:10 Dry 70.2F - 53F - - - - - - 37 mhos 2626 - None None - -
05/28/2016 18:10 Dry 70.2F - 53F - - - - - - 37 mhos 2626 - None None - -
05/28/2016 18:00 Dry 73.0F - 53F - - - - - - 37 mhos 2551 - None None - -
05/28/2016 17:55 Dry 72.3F - 53F - - - - - - 37 mhos 2566 - None None - -
05/28/2016 17:50 Dry 69.4F - 53F - - - - - - 28 mhos 2001 - Yes - - -
05/28/2016 17:40 Dry 67.1F - 53F - - - - - - 35 mhos 2577 - Yes - - -
Date/Time
(MDT)
Sf
Temp Chem Water Layer Surface Precipitation
Sfc Pvt Sub Frz Factor Pct Dpth DpthThk IcePct Cond Salin FI Type Intens Accum Rate
05/28/2016 17:40 Dry 67.1F - 53F - - - - - - 35 mhos 2577 - Yes - - -
05/28/2016 17:30 Dry 68.0F - 53F - - - - - - 37 mhos 2700 - None None - -
05/28/2016 17:25 Dry 69.6F - 52F - - - - - - 37 mhos 2638 - None None - -
05/28/2016 17:20 Dry 70.9F - 52F - - - - - - 37 mhos 2606 - None None - -
05/28/2016 17:10 Dry 73.9F - 52F - - - - - - 36 mhos 2492 - None None - -
05/28/2016 17:10 Dry 73.9F - 52F - - - - - - 36 mhos 2492 - None None - -
05/28/2016 17:00 Dry 77.5F - 52F - - - - - - 36 mhos 2377 - None None - -
05/28/2016 16:55 Dry 79.5F - 52F - - - - - - 36 mhos 2318 - None None - -
05/28/2016 16:50 Dry 78.3F - 52F - - - - - - 36 mhos 2360 - None None - -
05/28/2016 16:40 Dry 81.9F - 52F - - - - - - 36 mhos 2267 - None None - -
05/28/2016 16:30 Dry 81.7F - 52F - - - - - - 36 mhos 2273 - None None - -
05/28/2016 16:25 Dry 81.0F - 52F - - - - - - 36 mhos 2287 - None None - -
05/28/2016 16:20 Dry 81.9F - 52F - - - - - - 36 mhos 2267 - None None - -
05/28/2016 16:10 Dry 77.2F - 52F - - - - - - 36 mhos 2401 - None None - -
05/28/2016 16:10 Dry 77.2F - 52F - - - - - - 36 mhos 2401 - None None - -
Date/Time
(MDT)
Sf
Temp Chem Water Layer Surface Precipitation
Sfc Pvt Sub Frz Factor Pct Dpth DpthThk IcePct Cond Salin FI Type Intens Accum Rate
05/28/2016 16:00 Dry 77.2F - 52F - - - - - - 36 mhos 2401 - None None - -
05/28/2016 15:55 Dry 77.7F - 52F - - - - - - 36 mhos 2387 - None None - -
05/28/2016 15:50 Dry 75.7F - 52F - - - - - - 36 mhos 2450 - None None - -
05/28/2016 15:40 Dry 73.4F - 52F - - - - - - 36 mhos 2521 - None None - -
05/28/2016 15:40 Dry 73.4F - 52F - - - - - - 36 mhos 2521 - None None - -
05/28/2016 15:30 Dry 79.0F - 51F - - - - - - 36 mhos 2360 - None None - -
05/28/2016 15:25 Dry 77.5F - 51F - - - - - - 36 mhos 2394 - None None - -
05/28/2016 15:20 Dry 75.4F - 51F - - - - - - 36 mhos 2459 - None None - -
05/28/2016 15:10 Dry 79.7F - 51F - - - - - - 36 mhos 2313 - None None - -
05/28/2016 15:09 Dry 79.7F - 51F - - - - - - 36 mhos 2313 - None None - -
05/28/2016 14:59 Dry 86.7F - 51F - - - - - - 35 mhos 2146 - None None - -
05/28/2016 14:55 Dry 84.4F - 51F - - - - - - 35 mhos 2204 - None None - -
05/28/2016 14:49 Dry 80.6F - 51F - - - - - - 36 mhos 2311 - None None - -
05/28/2016 14:40 Dry 82.2F - 51F - - - - - - 36 mhos 2276 - None None - -
05/28/2016 14:39 Dry 82.2F - 51F - - - - - - 36 mhos 2276 - None None - -
Date/Time
(MDT)
Sf
Temp Chem Water Layer Surface Precipitation
Sfc Pvt Sub Frz Factor Pct Dpth DpthThk IcePct Cond Salin FI Type Intens Accum Rate
05/28/2016 14:29 Dry 75.4F - 51F - - - - - - 36 mhos 2477 - None None - -
05/28/2016 14:25 Dry 74.5F - 51F - - - - - - 36 mhos 2499 - None None - -
05/28/2016 14:19 Dry 75.7F - 51F - - - - - - 1 mhos 47 - None None - -
05/28/2016 14:10 Dry 75.7F - 51F - - - - - - 1 mhos 47 - None None - -
05/28/2016 14:09 Dry 76.8F - 51F - - - - - - 1 mhos 46 - None None - -
05/28/2016 13:59 Dry 72.0F - 51F - - - - - - 1 mhos 48 - None None - -
05/28/2016 13:55 Dry 71.1F - 51F - - - - - - 1 mhos 49 - None None - -
05/28/2016 13:49 Dry 69.6F - 51F - - - - - - 1 mhos 49 - None None - -
05/28/2016 13:40 Dry 73.9F - 51F - - - - - - 1 mhos 47 - None None - -
05/28/2016 13:39 Dry 74.7F - 51F - - - - - - 1 mhos 47 - None None - -
05/28/2016 13:29 Dry 67.8F - 51F - - - - - - 37 mhos 2728 - None None - -
05/28/2016 13:25 Dry 69.8F - 51F - - - - - - 1 mhos 49 - None None - -
05/28/2016 13:19 Dry 64.2F - 51F - - - - - - 36 mhos 2752 - None None - -
05/28/2016 13:10 Dry 60.6F - 51F - - - - - - 36 mhos 2821 - None None - -
05/28/2016 13:09 Dry 60.3F - 51F - - - - - - 36 mhos 2811 - None None - -
Date/Time
(MDT)
Sf
Temp Chem Water Layer Surface Precipitation
Sfc Pvt Sub Frz Factor Pct Dpth DpthThk IcePct Cond Salin FI Type Intens Accum Rate
05/28/2016 12:59 Dry 61.5F - 51F - - - - - - 36 mhos 2832 - Yes - - -
05/28/2016 12:55 Dry 63.0F - 51F - - - - - - 36 mhos 2789 - None None - -
05/28/2016 12:49 Dry 64.4F - 51F - - - - - - 36 mhos 2743 - None None - -
05/28/2016 12:40 Dry 61.3F - 51F - - - - - - 34 mhos 2666 - None None - -
05/28/2016 12:39 Dry 61.7F - 51F - - - - - - 35 mhos 2730 - None None - -
05/28/2016 12:29 Dry 57.0F - 51F - - - - - - 30 mhos 2384 - None None - -
05/28/2016 12:25 Dry 56.1F - 51F - - - - - - 29 mhos 2356 - None None - -
05/28/2016 12:19 Dry 53.6F - 51F - - - - - - 1 mhos 60 - None None - -
05/28/2016 12:10 Wet 53.6F - 51F 32F 5 1% 0.70 in - 0% 3 mhos 253 - None None - -
05/28/2016 12:09 Wet 53.8F - 51F 32F 5 1% 0.70 in - 0% 3 mhos 261 - Yes - - -
05/28/2016 11:59 Wet 58.8F - 51F 31F 5 6% 0.70 in - 0% 22 mhos 1671 - None None - -
05/28/2016 11:55 Wet 60.4F - 51F 28F 5 13% 0.70 in - 0% 47 mhos 3861 - None None - -
05/28/2016 11:49 Wet 60.8F - 51F 17F 5 33% 0.70 in - 0% 93 mhos 9962 - Yes - - -
05/28/2016 11:40 Wet 55.0F - 51F 26F 5 18% 0.70 in - 0% 59 mhos 5405 - Yes - - -
05/28/2016 11:38 Wet 55.0F - 51F 25F 5 19% 0.70 in - 0% 60 mhos 5553 - Yes - - -
Date/Time
(MDT)
Sf
Temp Chem Water Layer Surface Precipitation
Sfc Pvt Sub Frz Factor Pct Dpth DpthThk IcePct Cond Salin FI Type Intens Accum Rate
05/28/2016 11:28 Wet 52.3F - 51F 3F 5 50% 0.70 in - 0% 102 mhos 15000 - Yes - - -
05/28/2016 11:25 Wet 52.5F - 51F 3F 5 50% 0.70 in - 0% 112 mhos 15000 - None None - -
05/28/2016 11:18 Wet 49.5F - 51F 3F 5 50% 0.70 in - 0% 104 mhos 15000 - Yes - - -
05/28/2016 11:10 Wet 48.9F - 51F 23F 5 24% 0.70 in - 0% 67 mhos 7073 - Yes - - -
05/28/2016 11:08 Wet 50.0F - 51F 29F 5 10% 0.00 in - 0% 33 mhos 2894 - Yes - - -
05/28/2016 10:58 Dry 54.1F - 51F - - - - - - 30 mhos 2477 - None None - -
05/28/2016 10:55 Dry 54.7F - 51F - - - - - - 29 mhos 2395 - None None - -
05/28/2016 10:48 Dry 54.7F - 51F - - - - - - 25 mhos 2071 - None None - -
05/28/2016 10:40 Wet 52.7F - 51F 32F 5 0% 0.70 in - 0% 1 mhos 42 - Yes - - -
05/28/2016 10:38 Wet 52.3F - 51F 32F 5 0% 0.70 in - 0% 0 mhos 36 - Yes - - -
05/28/2016 10:28 Dry 53.4F - 51F - - - - - - 15 mhos 1236 - Yes - - -
05/28/2016 10:25 Dry 52.5F - 51F - - - - - - 17 mhos 1386 - None None - -
05/28/2016 10:18 Dry 53.8F - 51F - - - - - - 1 mhos 51 - Yes - - -
05/28/2016 10:10 Dry 56.3F - 51F - - - - - - 34 mhos 2765 - None None - -
05/28/2016 10:08 Dry 56.7F - 51F - - - - - - 33 mhos 2684 - None None - -
Date/Time
(MDT)
Sf
Temp Chem Water Layer Surface Precipitation
Sfc Pvt Sub Frz Factor Pct Dpth DpthThk IcePct Cond Salin FI Type Intens Accum Rate
05/28/2016 09:58 Dry 59.4F - 51F - - - - - - 35 mhos 2783 - None None - -
05/28/2016 09:55 Dry 59.4F - 51F - - - - - - 33 mhos 2656 - None None - -
05/28/2016 09:48 Dry 60.8F - 51F - - - - - - 35 mhos 2777 - None None - -
05/28/2016 09:40 Dry 58.8F - 51F - - - - - - 35 mhos 2798 - None None - -
05/28/2016 09:38 Dry 59.9F - 51F - - - - - - 35 mhos 2768 - None None - -
05/28/2016 09:28 Dry 55.0F - 51F - - - - - - 32 mhos 2653 - None None - -
05/28/2016 09:25 Dry 55.0F - 51F - - - - - - 31 mhos 2568 - None None - -
05/28/2016 09:18 Dry 54.3F - 51F - - - - - - 31 mhos 2624 - None None - -
05/28/2016 09:10 Dry 54.3F - 51F - - - - - - 30 mhos 2458 - None None - -
05/28/2016 09:08 Dry 54.7F - 51F - - - - - - 29 mhos 2408 - None None - -
05/28/2016 08:58 Dry 52.0F - 51F - - - - - - 27 mhos 2268 - None None - -
05/28/2016 08:55 Dry 52.0F - 51F - - - - - - 27 mhos 2256 - None None - -
05/28/2016 08:48 Dry 51.3F - 51F - - - - - - 24 mhos 2007 - None None - -
05/28/2016 08:40 Dry 47.5F - 51F - - - - - - 14 mhos 1160 - None None - -
05/28/2016 08:37 Dry 46.4F - 51F - - - - - - 15 mhos 1259 - Yes - - -
Date/Time
(MDT)
Sf
Temp Chem Water Layer Surface Precipitation
Sfc Pvt Sub Frz Factor Pct Dpth DpthThk IcePct Cond Salin FI Type Intens Accum Rate
05/28/2016 08:27 Dry 43.5F - 51F - - - - - - 1 mhos 62 - None None - -
05/28/2016 08:25 Dry 43.3F - 51F - - - - - - 1 mhos 62 - None None - -
05/28/2016 08:17 Dry 42.6F - 51F - - - - - - 1 mhos 58 - None None - -
05/28/2016 08:10 Wet 42.3F - 51F 32F 5 0% 0.70 in - 0% 0 mhos 40 - None None - -
05/28/2016 08:07 Wet 42.3F - 51F 32F 5 0% 0.70 in - 0% 0 mhos 41 - None None - -
05/28/2016 07:57 Wet 42.3F - 51F 32F 5 0% 0.70 in - 0% 0 mhos 40 - None None - -
05/28/2016 07:55 Wet 42.3F - 51F 32F 5 0% 0.70 in - 0% 0 mhos 41 - None None - -
05/28/2016 07:47 Wet 42.8F - 51F 32F 5 0% 0.70 in - 0% 0 mhos 40 - None None - -
05/28/2016 07:40 Wet 41.9F - 51F 32F 5 0% 0.70 in - 0% 0 mhos 41 - None None - -
05/28/2016 07:37 Wet 41.9F - 51F 32F 5 0% 0.70 in - 0% 0 mhos 41 - None None - -
05/28/2016 07:27 Wet 41.2F - 51F 32F 5 0% 0.60 in - 0% 0 mhos 42 - None None - -
05/28/2016 07:25 Wet 41.0F - 51F 32F 5 0% 0.70 in - 0% 0 mhos 41 - None None - -
05/28/2016 07:17 Wet 40.3F - 52F 32F 5 1% 0.70 in - 0% 3 mhos 243 - None None - -
05/28/2016 07:10 Wet 39.9F - 52F 32F 5 1% 0.70 in - 0% 3 mhos 260 - None None - -
05/28/2016 07:07 Wet 39.7F - 52F 32F 5 1% 0.70 in - 0% 3 mhos 266 - None None - -
Date/Time
(MDT)
Sf
Temp Chem Water Layer Surface Precipitation
Sfc Pvt Sub Frz Factor Pct Dpth DpthThk IcePct Cond Salin FI Type Intens Accum Rate
05/28/2016 06:57 Wet 39.4F - 52F 32F 5 1% 0.70 in - 0% 3 mhos 300 - None None - -
05/28/2016 06:55 Wet 39.4F - 52F 32F 5 1% 0.70 in - 0% 3 mhos 305 - None None - -
05/28/2016 06:47 Wet 38.5F - 52F 32F 5 1% 0.70 in - 0% 4 mhos 329 - None None - -
05/28/2016 06:40 Wet 37.2F - 52F 32F 5 1% 0.70 in - 0% 4 mhos 345 - None None - -
05/28/2016 06:37 Wet 36.9F - 52F 32F 5 1% 0.70 in - 0% 4 mhos 350 - None None - -
05/28/2016 06:27 Wet 36.1F - 52F 32F 5 1% 0.70 in - 0% 4 mhos 364 - None None - -
05/28/2016 06:25 Wet 36.0F - 52F 32F 5 1% 0.70 in - 0% 4 mhos 366 - None None - -
05/28/2016 06:17 Wet 36.0F - 52F 32F 5 1% 0.70 in - 0% 4 mhos 376 - None None - -
05/28/2016 06:10 Wet 35.6F - 52F 32F 5 1% 0.70 in - 0% 4 mhos 381 - None None - -
05/28/2016 06:06 Wet 35.8F - 52F 32F 5 1% 0.70 in - 0% 4 mhos 379 - None None - -
05/28/2016 05:56 Wet 35.6F - 52F 32F 5 1% 0.70 in - 0% 4 mhos 381 - None None - -
05/28/2016 05:55 Wet 35.8F - 52F 32F 5 1% 0.70 in - 0% 4 mhos 380 - None None - -
05/28/2016 05:46 Wet 35.6F - 52F 32F 5 1% 0.70 in - 0% 4 mhos 380 - None None - -
05/28/2016 05:40 Wet 35.4F - 52F 32F 5 1% 0.70 in - 0% 4 mhos 381 - None None - -
05/28/2016 05:36 Wet 35.4F - 52F 32F 5 1% 0.70 in - 0% 4 mhos 380 - None None - -
Date/Time
(MDT)
Sf
Temp Chem Water Layer Surface Precipitation
Sfc Pvt Sub Frz Factor Pct Dpth DpthThk IcePct Cond Salin FI Type Intens Accum Rate
05/28/2016 05:26 Wet 35.1F - 52F 32F 5 1% 0.70 in - 0% 4 mhos 383 - None None - -
05/28/2016 05:25 Wet 35.1F - 52F 32F 5 1% 0.70 in - 0% 4 mhos 383 - None None - -
05/28/2016 05:16 Wet 35.1F - 52F 32F 5 1% 0.70 in - 0% 4 mhos 383 - None None - -
05/28/2016 05:10 Wet 35.1F - 52F 32F 5 1% 0.70 in - 0% 4 mhos 384 - None None - -
05/28/2016 05:06 Wet 35.2F - 52F 32F 5 1% 0.70 in - 0% 4 mhos 386 - None None - -
05/28/2016 04:56 Wet 34.9F - 52F 32F 5 1% 0.70 in - 0% 4 mhos 391 - None None - -
05/28/2016 04:55 Wet 34.9F - 52F 32F 5 1% 0.70 in - 0% 4 mhos 392 - None None - -
05/28/2016 04:46 Wet 34.7F - 52F 32F 5 1% 0.70 in - 0% 4 mhos 397 - None None - -
05/28/2016 04:40 Wet 34.3F - 52F 32F 5 1% 0.70 in - 0% 4 mhos 404 - None None - -
05/28/2016 04:36 Wet 34.3F - 52F 32F 5 1% 0.70 in - 0% 4 mhos 407 - None None - -
05/28/2016 04:26 Wet 34.5F - 53F 32F 5 2% 0.70 in - 0% 5 mhos 454 - None None - -
05/28/2016 04:25 Wet 34.5F - 53F 32F 5 2% 0.70 in - 0% 5 mhos 462 - None None - -
05/28/2016 04:16 Wet 34.9F - 53F 31F 5 2% 0.70 in - 0% 6 mhos 579 - None None - -
05/28/2016 04:10 Wet 35.2F - 53F 31F 5 2% 0.70 in - 0% 7 mhos 716 - None None - -
05/28/2016 04:06 Wet 35.6F - 53F 31F 5 3% 0.70 in - 0% 9 mhos 884 - None None - -
Date/Time
(MDT)
Sf
Temp Chem Water Layer Surface Precipitation
Sfc Pvt Sub Frz Factor Pct Dpth DpthThk IcePct Cond Salin FI Type Intens Accum Rate
05/28/2016 03:56 Wet 36.3F - 53F 30F 5 6% 0.70 in - 0% 18 mhos 1766 - None None - -
05/28/2016 03:55 Wet 36.1F - 53F 30F 5 7% 0.70 in - 0% 20 mhos 2073 - None None - -
05/28/2016 03:46 Wet 36.3F - 53F 30F 5 7% 0.70 in - 0% 21 mhos 2076 - None None - -
05/28/2016 03:40 Wet 36.0F - 53F 30F 5 7% 0.70 in - 0% 20 mhos 2069 - None None - -
05/28/2016 03:36 Wet 36.1F - 53F 30F 5 7% 0.70 in - 0% 20 mhos 2065 - None None - -
05/28/2016 03:26 Wet 37.0F - 53F 30F 5 7% 0.70 in - 0% 21 mhos 2066 - None None - -
05/28/2016 03:25 Wet 37.0F - 53F 30F 5 7% 0.70 in - 0% 21 mhos 2066 - None None - -
05/28/2016 03:16 Wet 37.2F - 53F 30F 5 7% 0.70 in - 0% 21 mhos 2098 - None None - -
05/28/2016 03:10 Wet 37.2F - 53F 30F 5 6% 0.70 in - 0% 19 mhos 1936 - None None - -
05/28/2016 03:06 Wet 37.6F - 53F 30F 5 7% 0.70 in - 0% 21 mhos 2140 - None None - -
05/28/2016 02:56 Wet 37.8F - 53F 30F 5 7% 0.70 in - 0% 22 mhos 2217 - None None - -
05/28/2016 02:55 Wet 37.8F - 53F 30F 5 7% 0.70 in - 0% 22 mhos 2217 - None None - -
05/28/2016 02:46 Wet 37.8F - 53F 30F 5 8% 0.70 in - 0% 24 mhos 2379 - None None - -
05/28/2016 02:40 Wet 37.8F - 53F 30F 5 8% 0.70 in - 0% 25 mhos 2502 - None None - -
05/28/2016 02:35 Wet 38.1F - 53F 29F 5 9% 0.70 in - 0% 26 mhos 2659 - None None - -
Date/Time
(MDT)
Sf
Temp Chem Water Layer Surface Precipitation
Sfc Pvt Sub Frz Factor Pct Dpth DpthThk IcePct Cond Salin FI Type Intens Accum Rate
05/28/2016 02:25 Wet 38.3F - 53F 29F 5 10% 0.70 in - 0% 30 mhos 3118 - None None - -
05/28/2016 02:25 Wet 38.3F - 53F 29F 5 10% 0.70 in - 0% 30 mhos 3118 - None None - -
05/28/2016 02:15 Wet 38.5F - 53F 27F 5 15% 0.70 in - 0% 42 mhos 4554 - None None - -
05/28/2016 02:10 Wet 38.5F - 53F 27F 5 16% 0.70 in - 0% 43 mhos 4724 - None None - -
05/28/2016 02:05 Wet 38.5F - 53F 26F 5 17% 0.70 in - 0% 46 mhos 5097 - None None - -
05/28/2016 01:55 Wet 38.7F - 53F 26F 5 17% 0.70 in - 0% 47 mhos 5190 - None None - -
05/28/2016 01:55 Wet 38.7F - 53F 26F 5 17% 0.70 in - 0% 47 mhos 5190 - None None - -
05/28/2016 01:45 Wet 38.8F - 53F 26F 5 18% 0.70 in - 0% 48 mhos 5288 - None None - -
05/28/2016 01:40 Wet 38.8F - 53F 26F 5 18% 0.70 in - 0% 48 mhos 5345 - None None - -
05/28/2016 01:35 Wet 38.8F - 53F 26F 5 18% 0.70 in - 0% 49 mhos 5404 - None None - -
05/28/2016 01:25 Wet 38.8F - 53F 25F 5 19% 0.70 in - 0% 51 mhos 5727 - None None - -
05/28/2016 01:25 Wet 38.8F - 53F 25F 5 19% 0.70 in - 0% 51 mhos 5727 - None None - -
05/28/2016 01:15 Wet 38.7F - 53F 25F 5 20% 0.70 in - 0% 52 mhos 5951 - None None - -
05/28/2016 01:10 Wet 38.7F - 53F 25F 5 20% 0.70 in - 0% 52 mhos 5941 - None None - -
05/28/2016 01:05 Wet 38.7F - 54F 25F 5 20% 0.70 in - 0% 52 mhos 5941 - None None - -
Date/Time
(MDT)
Sf
Temp Chem Water Layer Surface Precipitation
Sfc Pvt Sub Frz Factor Pct Dpth DpthThk IcePct Cond Salin FI Type Intens Accum Rate
05/28/2016 00:55 Wet 39.0F - 54F 25F 5 20% 0.70 in - 0% 52 mhos 5910 - None None - -
05/28/2016 00:55 Wet 39.0F - 54F 25F 5 20% 0.70 in - 0% 52 mhos 5910 - None None - -
05/28/2016 00:45 Wet 39.0F - 54F 24F 5 21% 0.70 in - 0% 55 mhos 6378 - None None - -
05/28/2016 00:40 Wet 39.2F - 54F 24F 5 21% 0.70 in - 0% 55 mhos 6361 - None None - -
05/28/2016 00:35 Wet 39.2F - 54F 24F 5 21% 0.80 in - 0% 55 mhos 6361 - None None - -
05/28/2016 00:25 Wet 39.4F - 54F 24F 5 21% 0.70 in - 0% 55 mhos 6261 - None None - -
05/28/2016 00:25 Wet 39.4F - 54F 24F 5 21% 0.70 in - 0% 55 mhos 6261 - Yes - - -
05/28/2016 00:15 Wet 39.6F - 54F 24F 5 21% 0.70 in - 0% 54 mhos 6165 - Yes - - -
05/28/2016 00:10 Wet 39.6F - 54F 24F 5 20% 0.80 in - 0% 54 mhos 6086 - None None - -
05/28/2016 00:05 Wet 39.6F - 54F 24F 5 20% 0.70 in - 0% 54 mhos 6080 - None None - -
05/27/2016 23:55 Wet 39.7F - 54F 25F 5 20% 0.70 in - 0% 53 mhos 5978 - None None - -
Change End Date:

Copyright © 1998-2015 Vaisala, Inc.
All Rights Reserved
Send comments about the data to:
SCAN Web ® is a registered trademark of Vaisala, Inc.
SCAN Web Version 6.0